createdAt,value
2022-10-22T00:00:50.680Z,89.93
2022-10-22T00:04:14.204Z,90.00
2022-10-22T00:07:36.414Z,89.93
2022-10-22T00:10:58.860Z,89.84
2022-10-22T00:14:20.954Z,89.84
2022-10-22T00:17:43.044Z,90.17
2022-10-22T00:21:07.411Z,89.84
2022-10-22T00:24:29.220Z,89.79
2022-10-22T00:27:51.202Z,90.48
2022-10-22T00:31:13.212Z,90.43
2022-10-22T00:34:35.313Z,90.87
2022-10-22T00:37:58.824Z,91.01
2022-10-22T00:41:20.638Z,90.87
2022-10-22T00:45:18.477Z,90.31
2022-10-22T00:48:40.334Z,90.56
2022-10-22T00:52:02.192Z,90.55
2022-10-22T00:55:26.564Z,89.74
2022-10-22T00:58:52.405Z,89.71
2022-10-22T01:02:14.483Z,89.99
2022-10-22T01:05:42.522Z,90.66
2022-10-22T01:09:14.397Z,90.17
2022-10-22T01:12:49.091Z,90.11
2022-10-22T01:16:16.268Z,90.63
2022-10-22T01:19:51.508Z,90.71
2022-10-22T01:23:24.511Z,90.33
2022-10-22T01:27:01.616Z,89.87
2022-10-22T01:30:26.049Z,90.50
2022-10-22T01:33:50.367Z,89.68
2022-10-22T01:37:15.416Z,90.87
2022-10-22T01:40:38.762Z,90.74
2022-10-22T01:44:00.340Z,90.94
2022-10-22T01:47:38.004Z,91.67
2022-10-22T01:51:14.635Z,92.23
2022-10-22T01:54:45.686Z,92.11
2022-10-22T01:58:20.611Z,92.29
2022-10-22T02:01:50.002Z,91.93
2022-10-22T02:05:18.487Z,91.77
2022-10-22T02:08:40.905Z,92.30
2022-10-22T02:15:34.666Z,91.73
2022-10-22T02:18:59.753Z,91.75
2022-10-22T02:22:23.308Z,92.35
2022-10-22T02:25:52.784Z,92.71
2022-10-22T02:29:20.138Z,92.65
2022-10-22T02:32:48.882Z,93.39
2022-10-22T02:36:11.837Z,93.04
2022-10-22T02:39:37.328Z,92.85
2022-10-22T02:42:59.252Z,93.06
2022-10-22T02:46:21.962Z,92.62
2022-10-22T02:49:43.732Z,92.26
2022-10-22T02:53:05.714Z,92.49
2022-10-22T02:56:28.945Z,92.57
2022-10-22T02:59:51.130Z,92.82
2022-10-22T03:03:13.064Z,92.65
2022-10-22T03:06:35.003Z,92.60
2022-10-22T03:09:57.035Z,92.52
2022-10-22T03:13:20.234Z,93.31
2022-10-22T03:16:42.307Z,92.86
2022-10-22T03:20:04.296Z,93.79
2022-10-22T03:23:26.965Z,94.15
2022-10-22T03:26:50.526Z,93.87
2022-10-22T03:30:14.692Z,94.35
2022-10-22T03:33:36.220Z,94.26
2022-10-22T03:36:59.952Z,94.29
2022-10-22T03:40:22.358Z,94.57
2022-10-22T03:43:49.634Z,94.15
2022-10-22T03:47:12.707Z,93.93
2022-10-22T03:50:34.276Z,93.68
2022-10-22T03:53:56.646Z,93.89
2022-10-22T03:57:18.474Z,94.30
2022-10-22T04:00:40.283Z,94.66
2022-10-22T04:04:03.494Z,94.29
2022-10-22T04:07:25.653Z,93.74
2022-10-22T04:10:52.606Z,94.14
2022-10-22T04:14:14.292Z,94.16
2022-10-22T04:17:36.982Z,94.07
2022-10-22T04:21:00.305Z,94.42
2022-10-22T04:24:22.359Z,94.30
2022-10-22T04:27:44.148Z,94.15
2022-10-22T04:31:10.543Z,94.59
2022-10-22T04:34:32.688Z,95.02
2022-10-22T04:37:56.624Z,94.66
2022-10-22T04:41:20.795Z,94.49
2022-10-22T04:44:42.290Z,94.68
2022-10-22T04:48:04.350Z,94.99
2022-10-22T04:51:27.982Z,94.59
2022-10-22T04:54:51.072Z,94.81
2022-10-22T04:58:12.778Z,94.77
2022-10-22T05:01:39.953Z,94.77
2022-10-22T05:05:05.351Z,94.11
2022-10-22T05:08:27.187Z,94.11
2022-10-22T05:11:53.002Z,94.23
2022-10-22T05:15:14.872Z,94.53
2022-10-22T05:18:37.916Z,94.65
2022-10-22T05:22:01.772Z,94.63
2022-10-22T05:25:23.764Z,94.41
2022-10-22T05:28:47.269Z,94.98
2022-10-22T05:32:09.353Z,94.80
2022-10-22T05:35:32.040Z,94.51
2022-10-22T05:38:53.581Z,94.67
2022-10-22T05:42:15.476Z,95.00
2022-10-22T05:45:39.715Z,95.21
2022-10-22T05:49:02.924Z,95.12
2022-10-22T05:52:25.071Z,95.14
2022-10-22T05:55:47.375Z,95.45
2022-10-22T05:59:08.948Z,95.27
2022-10-22T06:02:32.314Z,95.22
2022-10-22T06:05:54.337Z,95.12
2022-10-22T06:09:19.274Z,95.00
2022-10-22T06:12:40.981Z,95.31
2022-10-22T06:16:03.232Z,95.23
2022-10-22T06:19:27.233Z,95.16
2022-10-22T06:22:49.477Z,95.41
2022-10-22T06:26:12.202Z,94.93
2022-10-22T06:29:34.431Z,95.15
2022-10-22T06:32:57.235Z,94.96
2022-10-22T06:36:21.979Z,95.12
2022-10-22T06:39:43.961Z,95.21
2022-10-22T06:43:06.254Z,94.92
2022-10-22T06:46:28.224Z,94.95
2022-10-22T06:49:50.935Z,95.08
2022-10-22T06:53:13.954Z,95.19
2022-10-22T06:56:36.220Z,95.53
2022-10-22T06:59:58.158Z,94.59
2022-10-22T07:03:20.503Z,94.83
2022-10-22T07:06:42.332Z,94.71
2022-10-22T07:10:06.050Z,94.61
2022-10-22T07:13:28.030Z,93.76
2022-10-22T07:16:50.226Z,93.87
2022-10-22T07:20:13.047Z,92.96
2022-10-22T07:23:35.645Z,93.04
2022-10-22T07:26:59.097Z,92.67
2022-10-22T07:30:21.097Z,92.02
2022-10-22T07:33:43.087Z,91.41
2022-10-22T07:37:05.338Z,90.94
2022-10-22T07:40:27.359Z,91.16
2022-10-22T07:43:50.352Z,90.91
2022-10-22T07:47:12.496Z,90.39
2022-10-22T07:50:34.574Z,89.25
2022-10-22T07:53:56.316Z,89.00
2022-10-22T07:57:18.269Z,88.22
2022-10-22T08:00:41.602Z,88.38
2022-10-22T08:04:03.777Z,87.86
2022-10-22T08:10:52.800Z,86.17
2022-10-22T08:14:14.720Z,86.08
2022-10-22T08:17:38.196Z,86.18
2022-10-22T08:21:00.278Z,84.62
2022-10-22T08:24:22.405Z,84.07
2022-10-22T08:27:44.692Z,83.92
2022-10-22T08:31:07.657Z,82.56
2022-10-22T08:34:31.334Z,82.92
2022-10-22T08:37:53.347Z,81.85
2022-10-22T08:41:18.301Z,81.32
2022-10-22T08:44:57.504Z,81.12
2022-10-22T08:48:37.492Z,80.97
2022-10-22T08:52:01.817Z,78.98
2022-10-22T08:55:25.833Z,78.47
2022-10-22T08:58:55.109Z,78.56
2022-10-22T09:02:31.488Z,78.52
2022-10-22T09:06:00.289Z,76.05
2022-10-22T09:09:29.028Z,76.63
2022-10-22T09:12:51.335Z,76.04
2022-10-22T09:16:19.257Z,76.06
2022-10-22T09:19:50.368Z,75.69
2022-10-22T09:23:25.882Z,74.88
2022-10-22T09:26:49.461Z,74.70
2022-10-22T09:30:17.529Z,75.24
2022-10-22T09:33:40.835Z,75.17
2022-10-22T09:37:03.988Z,73.90
2022-10-22T09:40:26.008Z,73.98
2022-10-22T09:43:50.445Z,73.38
2022-10-22T09:47:42.855Z,73.22
2022-10-22T09:51:19.569Z,74.09
2022-10-22T09:54:43.509Z,72.46
2022-10-22T09:58:06.206Z,71.95
2022-10-22T10:01:32.820Z,71.59
2022-10-22T10:04:56.461Z,71.60
2022-10-22T10:08:19.584Z,71.47
2022-10-22T10:11:46.915Z,70.99
2022-10-22T10:15:18.922Z,70.34
2022-10-22T10:18:55.366Z,70.95
2022-10-22T10:22:31.763Z,70.92
2022-10-22T10:25:58.979Z,71.12
2022-10-22T10:29:34.999Z,69.81
2022-10-22T10:33:12.617Z,70.25
2022-10-22T10:36:44.968Z,71.84
2022-10-22T10:44:54.512Z,69.81
2022-10-22T10:48:47.954Z,70.14
2022-10-22T10:52:20.453Z,69.48
2022-10-22T10:55:54.875Z,70.23
2022-10-22T10:59:26.051Z,69.87
2022-10-22T11:03:18.516Z,67.90
2022-10-22T11:06:41.341Z,69.09
2022-10-22T11:10:15.296Z,69.16
2022-10-22T11:13:42.346Z,68.18
2022-10-22T11:17:07.653Z,68.46
2022-10-22T11:20:36.024Z,69.74
2022-10-22T11:24:09.663Z,69.95
2022-10-22T11:27:38.853Z,69.62
2022-10-22T11:31:04.383Z,69.83
2022-10-22T11:34:33.809Z,69.59
2022-10-22T11:37:58.003Z,70.12
2022-10-22T11:41:24.610Z,69.33
2022-10-22T11:45:01.088Z,68.47
2022-10-22T11:48:29.415Z,68.78
2022-10-22T11:51:52.673Z,68.98
2022-10-22T11:55:46.127Z,68.73
2022-10-22T11:59:39.262Z,68.18
2022-10-22T12:03:06.322Z,70.23
2022-10-22T12:06:29.200Z,69.54
2022-10-22T12:13:23.175Z,67.72
2022-10-22T12:17:02.232Z,69.08
2022-10-22T12:20:26.735Z,68.07
2022-10-22T12:23:49.716Z,69.54
2022-10-22T12:27:22.443Z,69.17
2022-10-22T12:30:45.042Z,69.86
2022-10-22T12:34:07.181Z,69.03
2022-10-22T12:37:31.719Z,70.02
2022-10-22T12:40:56.670Z,68.53
2022-10-22T12:44:19.935Z,69.01
2022-10-22T12:47:46.382Z,69.25
2022-10-22T12:51:10.211Z,69.26
2022-10-22T12:54:35.310Z,68.79
2022-10-22T12:57:57.241Z,68.96
2022-10-22T13:01:19.989Z,69.46
2022-10-22T13:04:41.884Z,70.04
2022-10-22T13:08:06.016Z,69.67
2022-10-22T13:11:35.474Z,69.04
2022-10-22T13:14:57.080Z,69.82
2022-10-22T13:18:21.158Z,69.62
2022-10-22T13:21:49.884Z,69.87
2022-10-22T13:25:24.085Z,68.69
2022-10-22T13:28:54.708Z,69.19
2022-10-22T13:32:29.109Z,68.77
2022-10-22T13:35:51.141Z,69.44
2022-10-22T13:39:18.253Z,69.61
2022-10-22T13:42:40.813Z,69.66
2022-10-22T13:46:04.412Z,70.01
2022-10-22T13:49:26.166Z,70.22
2022-10-22T13:52:51.174Z,70.25
2022-10-22T13:56:16.344Z,70.00
2022-10-22T13:59:38.166Z,70.04
2022-10-22T14:03:01.794Z,70.47
2022-10-22T14:06:28.656Z,70.82
2022-10-22T14:09:51.436Z,70.88
2022-10-22T14:13:14.397Z,71.14
2022-10-22T14:16:37.138Z,70.94
2022-10-22T14:20:02.252Z,71.12
2022-10-22T14:23:27.802Z,71.04
2022-10-22T14:26:50.625Z,71.75
2022-10-22T14:30:16.901Z,72.21
2022-10-22T14:33:41.048Z,72.18
2022-10-22T14:37:05.235Z,72.14
2022-10-22T14:40:28.907Z,72.57
2022-10-22T14:43:52.695Z,72.74
2022-10-22T14:47:15.649Z,72.75
2022-10-22T14:50:38.204Z,73.63
2022-10-22T14:54:02.598Z,73.78
2022-10-22T14:57:25.249Z,74.32
2022-10-22T15:00:48.139Z,74.73
2022-10-22T15:04:10.754Z,74.95
2022-10-22T15:07:33.511Z,75.11
2022-10-22T15:11:06.507Z,75.27
2022-10-22T15:14:29.773Z,75.93
2022-10-22T15:17:52.626Z,76.09
2022-10-22T15:21:17.796Z,76.52
2022-10-22T15:24:41.208Z,76.85
2022-10-22T15:28:09.847Z,77.12
2022-10-22T15:31:48.800Z,77.50
2022-10-22T15:35:11.803Z,77.75
2022-10-22T15:38:34.558Z,78.13
2022-10-22T15:41:57.805Z,78.97
2022-10-22T15:45:24.461Z,78.76
2022-10-22T15:48:50.700Z,78.93
2022-10-22T15:52:13.354Z,79.35
2022-10-22T15:55:36.512Z,79.62
2022-10-22T15:59:01.728Z,80.26
2022-10-22T16:02:26.936Z,80.04
2022-10-22T16:05:54.812Z,80.13
2022-10-22T16:09:20.004Z,81.27
2022-10-22T16:12:44.030Z,81.41
2022-10-22T16:16:08.820Z,81.84
2022-10-22T16:19:33.819Z,81.42
2022-10-22T16:22:56.986Z,82.29
2022-10-22T16:26:21.821Z,82.63
2022-10-22T16:29:45.669Z,82.54
2022-10-22T16:33:10.263Z,82.94
2022-10-22T16:36:37.009Z,82.88
2022-10-22T16:40:03.150Z,83.03
2022-10-22T16:43:31.017Z,84.10
2022-10-22T16:46:55.416Z,83.45
2022-10-22T16:50:18.988Z,83.94
2022-10-22T16:53:44.405Z,84.79
2022-10-22T16:57:07.569Z,83.77
2022-10-22T17:00:30.220Z,84.77
2022-10-22T17:03:55.020Z,84.32
2022-10-22T17:07:18.804Z,84.76
2022-10-22T17:10:43.804Z,84.32
2022-10-22T17:14:07.300Z,84.34
2022-10-22T17:17:30.748Z,85.57
2022-10-22T17:20:56.572Z,88.35
2022-10-22T17:24:20.841Z,88.77
2022-10-22T17:27:46.487Z,88.24
2022-10-22T17:31:13.029Z,89.51
2022-10-22T17:34:37.011Z,88.19
2022-10-22T17:38:00.846Z,87.77
2022-10-22T17:41:26.827Z,86.89
2022-10-22T17:44:51.319Z,86.75
2022-10-22T17:48:14.691Z,86.87
2022-10-22T17:51:37.447Z,86.52
2022-10-22T17:55:00.610Z,86.37
2022-10-22T17:58:23.465Z,86.77
2022-10-22T18:01:49.192Z,86.89
2022-10-22T18:05:13.683Z,86.32
2022-10-22T18:08:36.864Z,86.46
2022-10-22T18:12:00.012Z,86.40
2022-10-22T18:15:22.993Z,86.34
2022-10-22T18:18:50.039Z,86.35
2022-10-22T18:22:13.290Z,87.04
2022-10-22T18:25:41.167Z,87.34
2022-10-22T18:29:04.024Z,87.98
2022-10-22T18:32:27.298Z,88.15
2022-10-22T18:35:52.706Z,88.76
2022-10-22T18:39:17.202Z,89.61
2022-10-22T18:42:41.705Z,89.39
2022-10-22T18:46:09.673Z,89.62
2022-10-22T18:49:32.632Z,89.57
2022-10-22T18:52:57.228Z,89.16
2022-10-22T18:56:21.214Z,89.23
2022-10-22T18:59:45.210Z,89.19
2022-10-22T19:03:10.003Z,89.28
2022-10-22T19:06:37.148Z,89.48
2022-10-22T19:10:04.529Z,89.52
2022-10-22T19:13:29.640Z,89.64
2022-10-22T19:16:53.208Z,89.68
2022-10-22T19:20:24.872Z,89.84
2022-10-22T19:23:49.566Z,89.73
2022-10-22T19:27:14.265Z,90.03
2022-10-22T19:30:37.889Z,90.65
2022-10-22T19:34:03.062Z,90.54
2022-10-22T19:37:26.525Z,90.17
2022-10-22T19:40:52.046Z,90.28
2022-10-22T19:44:16.741Z,89.83
2022-10-22T19:47:40.213Z,90.08
2022-10-22T19:51:08.809Z,89.36
2022-10-22T19:54:32.074Z,90.18
2022-10-22T19:57:54.827Z,90.33
2022-10-22T20:01:20.538Z,89.22
2022-10-22T20:04:49.095Z,89.03
2022-10-22T20:08:13.535Z,89.15
2022-10-22T20:11:36.907Z,88.45
2022-10-22T20:15:02.627Z,88.46
2022-10-22T20:18:27.131Z,87.97
2022-10-22T20:21:51.163Z,88.01
2022-10-22T20:25:15.303Z,88.08
2022-10-22T20:28:41.052Z,87.56
2022-10-22T20:32:05.495Z,87.70
2022-10-22T20:35:33.495Z,87.55
2022-10-22T20:39:02.362Z,87.99
2022-10-22T20:42:25.871Z,88.13
2022-10-22T20:45:49.840Z,88.44
2022-10-22T20:49:17.207Z,88.69
2022-10-22T20:52:41.903Z,88.66
2022-10-22T20:56:06.723Z,88.50
2022-10-22T20:59:33.460Z,88.05
2022-10-22T21:02:58.936Z,88.02
2022-10-22T21:06:23.883Z,88.55
2022-10-22T21:09:48.936Z,88.63
2022-10-22T21:13:12.566Z,88.75
2022-10-22T21:16:37.927Z,88.68
2022-10-22T21:20:01.067Z,88.92
2022-10-22T21:23:24.425Z,89.00
2022-10-22T21:26:49.520Z,89.41
2022-10-22T21:30:14.546Z,89.43
2022-10-22T21:33:39.125Z,89.97
2022-10-22T21:37:03.019Z,90.22
2022-10-22T21:40:28.633Z,90.09
2022-10-22T21:43:53.945Z,90.30
2022-10-22T21:47:16.902Z,90.20
2022-10-22T21:50:44.263Z,90.52
2022-10-22T21:54:08.142Z,90.29
2022-10-22T21:57:31.831Z,90.16
2022-10-22T22:01:01.905Z,90.53
2022-10-22T22:04:24.960Z,90.67
2022-10-22T22:07:48.913Z,90.76
2022-10-22T22:11:14.210Z,91.10
2022-10-22T22:14:38.603Z,91.53
2022-10-22T22:18:03.960Z,91.43
2022-10-22T22:21:27.899Z,92.05
2022-10-22T22:24:51.159Z,91.85
2022-10-22T22:28:13.818Z,91.96
2022-10-22T22:31:37.800Z,92.20
2022-10-22T22:35:02.809Z,92.39
2022-10-22T22:38:26.967Z,92.40
2022-10-22T22:41:51.085Z,92.51
2022-10-22T22:45:14.590Z,92.84
2022-10-22T22:48:38.123Z,93.22
2022-10-22T22:52:03.549Z,93.67
2022-10-22T22:55:27.421Z,94.03
2022-10-22T22:58:51.713Z,93.88
2022-10-22T23:02:15.289Z,93.68
2022-10-22T23:05:39.475Z,93.61
2022-10-22T23:09:06.843Z,93.73
2022-10-22T23:12:31.847Z,94.09
2022-10-22T23:15:55.937Z,94.20
2022-10-22T23:19:21.961Z,93.81
2022-10-22T23:22:45.076Z,93.82
2022-10-22T23:26:13.308Z,93.97
2022-10-22T23:29:38.107Z,94.21
2022-10-22T23:33:00.976Z,93.87
2022-10-22T23:36:24.332Z,93.68
2022-10-22T23:39:47.499Z,93.45
2022-10-22T23:43:15.205Z,93.44
2022-10-22T23:46:40.172Z,93.92
2022-10-22T23:50:03.340Z,94.44
2022-10-22T23:53:26.501Z,94.57
2022-10-22T23:56:50.592Z,95.11
